Time;durP1;ratioP1;P1;durP2;ratioP2;P2;SDS_P1;SDS_P2;PMS_P1;PMS_P2;Temp;Humidity;BMP_temperature;BMP_pressure;BME280_temperature;BME280_humidity;BME280_pressure;Samples;Min_cycle;Max_cycle;Signal;HPM_P1;HPM_P2
2024/04/12 00:01:20;;;;;;;29.58;16.65;;;;;;;11.65;100.00;102365.50;5425003;26;20726;-83
2024/04/12 00:03:52;;;;;;;28.70;17.48;;;;;;;11.67;100.00;102361.47;5414491;26;20391;-83
2024/04/12 00:06:25;;;;;;;29.58;16.98;;;;;;;11.69;100.00;102359.31;5407642;26;20360;-83
2024/04/12 00:08:57;;;;;;;29.77;16.85;;;;;;;11.64;100.00;102356.50;5400166;26;20377;-83
2024/04/12 00:11:24;;;;;;;29.42;16.92;;;;;;;11.66;100.00;102362.53;5403986;26;20743;-83
2024/04/12 00:13:55;;;;;;;30.27;16.70;;;;;;;11.68;100.00;102363.13;5415264;26;20396;-83
2024/04/12 00:16:24;;;;;;;32.25;17.33;;;;;;;11.67;100.00;102364.19;5430954;26;20475;-83
2024/04/12 00:19:07;;;;;;;31.17;17.40;;;;;;;11.67;100.00;102361.47;5429778;26;20387;-82
2024/04/12 00:21:37;;;;;;;33.33;17.58;;;;;;;11.68;100.00;102363.13;5422249;26;20938;-83
2024/04/12 00:24:11;;;;;;;30.30;17.63;;;;;;;11.69;100.00;102353.84;5435920;26;20376;-82
2024/04/12 00:26:42;;;;;;;31.65;17.38;;;;;;;11.62;100.00;102358.66;5414194;26;20383;-83
2024/04/12 00:29:25;;;;;;;30.83;16.77;;;;;;;11.67;100.00;102355.16;5428353;26;20396;-83
2024/04/12 00:31:54;;;;;;;30.30;17.38;;;;;;;11.67;100.00;102355.16;5437900;26;20386;-83
2024/04/12 00:34:26;;;;;;;30.63;17.35;;;;;;;11.68;100.00;102359.56;5435288;26;20899;-83
2024/04/12 00:37:06;;;;;;;33.22;18.00;;;;;;;11.68;100.00;102362.28;5433376;26;20714;-83
2024/04/12 00:39:39;;;;;;;34.22;18.88;;;;;;;11.68;100.00;102365.84;5409792;26;20403;-83
2024/04/12 00:42:07;;;;;;;34.67;17.67;;;;;;;11.65;100.00;102363.59;5431030;26;21216;-83
2024/04/12 00:44:38;;;;;;;33.37;17.87;;;;;;;11.66;100.00;102359.00;5428990;26;20379;-83
2024/04/12 00:47:10;;;;;;;29.98;17.75;;;;;;;11.68;100.00;102360.41;5434883;26;20387;-82
2024/04/12 00:49:49;;;;;;;32.90;17.88;;;;;;;11.69;100.00;102366.66;5430155;26;20372;-82
2024/04/12 00:52:22;;;;;;;29.27;17.48;;;;;;;11.69;100.00;102358.50;5435429;26;20372;-83
2024/04/12 00:55:02;;;;;;;31.13;16.77;;;;;;;11.68;100.00;102346.78;5429245;26;20863;-83
2024/04/12 00:57:35;;;;;;;31.05;17.27;;;;;;;11.69;100.00;102353.03;5402176;26;20375;-83
2024/04/12 01:00:08;;;;;;;32.85;17.83;;;;;;;11.66;100.00;102351.63;5424318;26;20871;-83
2024/04/12 01:02:39;;;;;;;29.90;17.67;;;;;;;11.67;100.00;102350.56;5444354;26;20436;-83
2024/04/12 01:05:11;;;;;;;30.80;17.70;;;;;;;11.66;100.00;102342.63;5416771;26;20760;-83
2024/04/12 01:07:48;;;;;;;30.70;17.08;;;;;;;11.69;100.00;102344.84;5438079;26;20439;-83
2024/04/12 01:10:22;;;;;;;30.70;17.58;;;;;;;11.67;100.00;102338.81;5394134;26;20382;-83
2024/04/12 01:12:54;;;;;;;30.23;17.08;;;;;;;11.67;100.00;102336.06;5428061;26;20365;-82
2024/04/12 01:15:25;;;;;;;28.50;16.83;;;;;;;11.65;100.00;102338.25;5440681;26;20391;-83
2024/04/12 01:17:53;;;;;;;29.27;16.95;;;;;;;11.64;100.00;102348.34;5426750;26;20383;-83
2024/04/12 01:20:25;;;;;;;28.77;16.40;;;;;;;11.60;100.00;102343.59;5414429;26;20381;-83
2024/04/12 01:22:58;;;;;;;29.98;16.83;;;;;;;11.63;100.00;102341.22;5405793;26;20868;-82
2024/04/12 01:25:31;;;;;;;29.83;16.23;;;;;;;11.63;100.00;102340.38;5418062;26;20389;-83
2024/04/12 01:28:02;;;;;;;28.23;15.60;;;;;;;11.64;100.00;102342.88;5428482;26;20726;-83
2024/04/12 01:30:34;;;;;;;26.60;16.30;;;;;;;11.63;100.00;102330.31;5428597;26;20379;-83
2024/04/12 01:33:06;;;;;;;27.92;15.75;;;;;;;11.65;100.00;102336.31;5397626;26;20393;-83
2024/04/12 01:35:36;;;;;;;25.83;15.63;;;;;;;11.64;100.00;102340.16;5428151;26;20394;-83
2024/04/12 01:38:16;;;;;;;25.88;15.27;;;;;;;11.66;100.00;102337.19;5433808;26;20362;-82
2024/04/12 01:40:56;;;;;;;26.45;15.48;;;;;;;11.64;100.00;102337.44;5411328;26;21238;-82
2024/04/12 01:43:26;;;;;;;27.17;15.35;;;;;;;11.67;100.00;102338.81;5437628;26;20372;-83
2024/04/12 01:45:56;;;;;;;28.30;16.02;;;;;;;11.58;100.00;102344.66;5413372;26;20386;-82
2024/04/12 01:48:24;;;;;;;28.92;15.65;;;;;;;11.61;100.00;102337.88;5430218;26;20388;-82
2024/04/12 01:50:54;;;;;;;30.08;15.65;;;;;;;11.60;100.00;102333.53;5438129;26;20377;-83
2024/04/12 01:53:27;;;;;;;25.00;14.98;;;;;;;11.61;100.00;102328.91;5409559;26;20367;-82
2024/04/12 01:56:00;;;;;;;26.90;14.53;;;;;;;11.62;100.00;102331.38;5427126;26;20392;-83
2024/04/12 01:58:29;;;;;;;28.25;15.00;;;;;;;11.62;100.00;102327.84;5429461;26;21240;-83
2024/04/12 02:01:02;;;;;;;26.02;15.48;;;;;;;11.60;100.00;102333.53;5432450;26;20366;-83
2024/04/12 02:03:30;;;;;;;26.13;15.35;;;;;;;11.62;100.00;102334.09;5431427;26;20396;-83
2024/04/12 02:06:05;;;;;;;27.00;14.97;;;;;;;11.66;100.00;102332.53;5428891;26;20816;-83
2024/04/12 02:08:33;;;;;;;27.75;14.75;;;;;;;11.64;100.00;102329.25;5434445;26;20387;-83
2024/04/12 02:11:06;;;;;;;23.45;14.00;;;;;;;11.63;100.00;102332.19;5413944;26;20372;-83
2024/04/12 02:13:36;;;;;;;27.88;14.85;;;;;;;11.64;100.00;102331.97;5434578;26;20467;-83
2024/04/12 02:16:10;;;;;;;23.33;14.18;;;;;;;11.65;100.00;102333.59;5419672;26;20371;-83
2024/04/12 02:18:41;;;;;;;25.90;15.30;;;;;;;11.71;100.00;102332.63;5429805;26;20373;-83
2024/04/12 02:21:11;;;;;;;27.50;15.00;;;;;;;11.70;100.00;102336.44;5404518;26;20399;-83
2024/04/12 02:23:40;;;;;;;26.43;15.17;;;;;;;11.68;100.00;102335.84;5432771;26;21116;-83
2024/04/12 02:26:13;;;;;;;30.88;15.80;;;;;;;11.70;100.00;102336.44;5423487;26;20897;-82
2024/04/12 02:28:43;;;;;;;29.45;16.50;;;;;;;11.66;100.00;102335.25;5425781;26;20400;-82
2024/04/12 02:31:13;;;;;;;28.17;15.87;;;;;;;11.69;100.00;102331.22;5398287;26;20567;-83
2024/04/12 02:33:42;;;;;;;30.17;16.33;;;;;;;11.68;100.00;102335.84;5437499;26;20392;-82
2024/04/12 02:36:18;;;;;;;31.80;16.85;;;;;;;11.67;100.00;102336.94;5424765;26;20358;-83
2024/04/12 02:38:49;;;;;;;29.55;16.30;;;;;;;11.68;100.00;102327.69;5429550;26;20681;-83
2024/04/12 02:41:22;;;;;;;30.35;16.38;;;;;;;11.67;100.00;102323.28;5428033;26;20371;-82
2024/04/12 02:43:51;;;;;;;31.08;16.35;;;;;;;11.72;100.00;102319.81;5432316;26;20392;-83
2024/04/12 02:46:22;;;;;;;29.88;16.30;;;;;;;11.71;100.00;102316.25;5428853;26;20375;-83
2024/04/12 02:48:51;;;;;;;29.17;16.85;;;;;;;11.65;100.00;102321.88;5443852;26;20404;-83
2024/04/12 02:51:22;;;;;;;30.63;16.98;;;;;;;11.62;100.00;102320.47;5433203;26;21052;-82
2024/04/12 02:53:50;;;;;;;35.33;17.23;;;;;;;11.61;100.00;102309.81;5394206;26;20724;-83
2024/04/12 02:56:24;;;;;;;31.92;17.02;;;;;;;11.61;100.00;102310.63;5426967;26;20363;-84
2024/04/12 02:58:52;;;;;;;33.65;17.27;;;;;;;11.62;100.00;102312.28;5431806;26;20997;-83
2024/04/12 03:01:24;;;;;;;32.42;16.95;;;;;;;11.61;100.00;102307.91;5416414;26;21482;-82
2024/04/12 03:03:55;;;;;;;30.00;17.38;;;;;;;11.57;100.00;102301.28;5427148;26;20384;-83
2024/04/12 03:06:26;;;;;;;32.35;18.00;;;;;;;11.60;100.00;102303.53;5413000;26;20379;-83
2024/04/12 03:08:59;;;;;;;32.72;17.42;;;;;;;11.65;100.00;102310.97;5431047;26;20381;-83
2024/04/12 03:11:37;;;;;;;31.33;17.00;;;;;;;11.57;100.00;102302.13;5400040;26;20385;-83
2024/04/12 03:14:09;;;;;;;32.08;18.25;;;;;;;11.54;100.00;102304.50;5440563;26;20380;-83
2024/04/12 03:16:40;;;;;;;33.50;18.15;;;;;;;11.58;100.00;102309.22;5416043;26;20387;-82
2024/04/12 03:19:10;;;;;;;30.50;17.20;;;;;;;11.57;100.00;102304.00;5423575;26;20383;-82
2024/04/12 03:21:42;;;;;;;31.92;17.15;;;;;;;11.54;100.00;102302.59;5425426;26;20406;-83
2024/04/12 03:24:10;;;;;;;34.75;17.33;;;;;;;11.55;100.00;102303.44;5406019;26;20417;-83
2024/04/12 03:26:44;;;;;;;32.42;18.13;;;;;;;11.59;100.00;102299.16;5404829;26;20387;-83
2024/04/12 03:29:12;;;;;;;32.15;17.98;;;;;;;11.56;100.00;102281.38;5433633;26;20384;-84
2024/04/12 03:31:46;;;;;;;31.83;17.70;;;;;;;11.60;100.00;102284.44;5438568;26;20757;-84
2024/04/12 03:34:14;;;;;;;36.00;17.88;;;;;;;11.50;100.00;102268.75;5429858;26;20378;-83
2024/04/12 03:39:30;;;;;;;28.90;17.58;;;;;;;11.51;100.00;102285.94;5436815;26;20402;-84
2024/04/12 03:42:04;;;;;;;32.28;18.38;;;;;;;11.48;100.00;102280.97;5446021;26;20735;-84
2024/04/12 03:44:36;;;;;;;31.60;17.95;;;;;;;11.47;100.00;102284.75;5434214;26;20397;-84
2024/04/12 03:47:07;;;;;;;35.53;18.42;;;;;;;11.42;100.00;102277.34;5433149;26;20385;-83
2024/04/12 03:49:39;;;;;;;32.92;18.10;;;;;;;11.42;100.00;102277.34;5414576;26;20389;-83
2024/04/12 03:52:11;;;;;;;33.60;18.02;;;;;;;11.41;100.00;102275.69;5425294;26;20383;-83
2024/04/12 03:54:42;;;;;;;33.88;18.33;;;;;;;11.37;100.00;102275.31;5426915;26;20387;-84
2024/04/12 03:57:13;;;;;;;32.60;18.38;;;;;;;11.41;100.00;102278.41;5433103;26;20394;-84
2024/04/12 03:59:44;;;;;;;31.73;17.17;;;;;;;11.39;100.00;102275.94;5437168;26;20927;-84
2024/04/12 04:02:18;;;;;;;31.63;16.98;;;;;;;11.40;100.00;102263.13;5427087;26;20364;-84
2024/04/12 04:04:49;;;;;;;29.27;16.10;;;;;;;11.34;100.00;102267.66;5427987;26;20883;-83
2024/04/12 04:07:16;;;;;;;32.15;16.35;;;;;;;11.36;100.00;102259.22;5413766;26;20398;-84
2024/04/12 04:09:47;;;;;;;30.60;16.47;;;;;;;11.38;100.00;102257.09;5439146;26;20380;-83
2024/04/12 04:12:17;;;;;;;29.67;16.17;;;;;;;11.35;100.00;102263.88;5427021;26;20387;-83
2024/04/12 04:14:50;;;;;;;27.77;15.32;;;;;;;11.35;100.00;102272.03;5434123;26;20376;-83
2024/04/12 04:17:18;;;;;;;28.53;16.07;;;;;;;11.29;100.00;102266.75;5439465;26;20383;-83
2024/04/12 04:19:51;;;;;;;31.63;15.52;;;;;;;11.30;100.00;102252.88;5436563;26;20483;-83
2024/04/12 04:25:31;;;;;;;29.17;15.18;;;;;;;11.24;100.00;102262.00;5555327;25;20366;-84
2024/04/12 04:27:59;;;;;;;30.95;15.25;;;;;;;11.26;100.00;102262.59;5523197;25;20394;-83
2024/04/12 04:30:29;;;;;;;28.98;15.13;;;;;;;11.22;100.00;102264.97;5515955;25;20369;-83
2024/04/12 04:32:59;;;;;;;29.55;15.50;;;;;;;11.21;100.00;102257.91;5534804;25;20354;-83
2024/04/12 04:35:27;;;;;;;29.00;15.18;;;;;;;11.23;100.00;102265.81;5560560;25;20376;-83
2024/04/12 04:37:58;;;;;;;29.23;14.70;;;;;;;11.26;100.00;102267.22;5535821;25;20366;-84
2024/04/12 04:40:28;;;;;;;27.90;15.10;;;;;;;11.26;100.00;102262.59;5534987;25;20378;-84
2024/04/12 04:42:58;;;;;;;28.98;15.20;;;;;;;11.23;100.00;102263.09;5536841;25;20378;-83
2024/04/12 04:45:31;;;;;;;30.80;14.75;;;;;;;11.17;100.00;102267.63;5531955;25;20322;-83
2024/04/12 04:48:01;;;;;;;30.83;14.65;;;;;;;11.16;100.00;102265.16;5526340;25;20379;-83
2024/04/12 04:50:28;;;;;;;33.17;15.20;;;;;;;11.16;100.00;102256.97;5535628;25;20374;-82
2024/04/12 04:53:02;;;;;;;27.65;13.68;;;;;;;11.21;100.00;102262.50;5536815;25;20397;-83
2024/04/12 04:55:35;;;;;;;29.52;13.65;;;;;;;11.27;100.00;102267.00;5535834;25;20714;-83
2024/04/12 04:58:08;;;;;;;27.15;13.70;;;;;;;11.26;100.00;102265.31;5564855;25;20374;-83
2024/04/12 05:00:40;;;;;;;26.92;13.77;;;;;;;11.27;100.00;102263.41;5538154;25;20374;-83
2024/04/12 05:03:11;;;;;;;27.20;14.00;;;;;;;11.27;100.00;102255.25;5529475;25;21454;-83
2024/04/12 05:05:41;;;;;;;29.67;14.25;;;;;;;11.25;100.00;102268.31;5529146;25;20378;-83
2024/04/12 05:08:14;;;;;;;28.90;14.27;;;;;;;11.25;100.00;102260.13;5534448;25;20379;-83
2024/04/12 05:10:44;;;;;;;29.65;14.40;;;;;;;11.25;100.00;102265.56;5539015;25;20382;-83
2024/04/12 05:13:17;;;;;;;30.77;14.65;;;;;;;11.26;100.00;102261.78;5532510;25;20382;-83
2024/04/12 05:15:51;;;;;;;29.13;14.47;;;;;;;11.29;100.00;102258.56;5534429;25;20366;-83
2024/04/12 05:18:21;;;;;;;30.02;14.50;;;;;;;11.28;100.00;102262.34;5536133;25;20386;-83
2024/04/12 05:20:49;;;;;;;34.00;14.82;;;;;;;11.30;100.00;102254.78;5532279;25;20359;-83
2024/04/12 05:23:20;;;;;;;33.92;15.02;;;;;;;11.32;100.00;102245.25;5528346;25;20369;-83
2024/04/12 05:25:51;;;;;;;34.15;15.30;;;;;;;11.32;100.00;102242.53;5536889;25;20370;-82
2024/04/12 05:28:21;;;;;;;32.85;14.75;;;;;;;11.40;100.00;102244.84;5527701;25;20392;-83
2024/04/12 05:30:50;;;;;;;34.63;15.00;;;;;;;11.40;100.00;102239.41;5538468;25;20375;-83
2024/04/12 05:33:22;;;;;;;31.27;14.27;;;;;;;11.46;100.00;102242.22;5538724;25;20395;-83
2024/04/12 05:35:52;;;;;;;36.63;15.25;;;;;;;11.48;100.00;102235.44;5527463;25;20752;-83
2024/04/12 05:38:24;;;;;;;33.72;15.13;;;;;;;11.47;100.00;102239.22;5517887;26;20358;-83
2024/04/12 05:40:54;;;;;;;38.42;16.45;;;;;;;11.49;100.00;102242.56;5521350;26;20371;-83
2024/04/12 05:43:25;;;;;;;37.10;16.10;;;;;;;11.54;100.00;102236.34;5520484;26;20885;-83
2024/04/12 05:45:53;;;;;;;32.55;15.63;;;;;;;11.56;100.00;102231.50;5515651;26;20703;-83
2024/04/12 05:48:24;;;;;;;34.72;16.15;;;;;;;11.62;100.00;102235.94;5507324;26;20379;-83
2024/04/12 05:50:53;;;;;;;38.40;16.60;;;;;;;11.62;100.00;102225.03;5519610;26;20371;-82
2024/04/12 05:53:29;;;;;;;36.80;16.20;;;;;;;11.58;100.00;102232.88;5516887;26;20379;-82
2024/04/12 05:58:50;;;;;;;39.25;17.55;;;;;;;11.53;100.00;102226.50;5511957;26;20396;-83
2024/04/12 06:01:18;;;;;;;35.55;16.35;;;;;;;11.57;100.00;102222.22;5518146;26;20370;-83
2024/04/12 06:03:53;;;;;;;42.28;17.15;;;;;;;11.61;100.00;102228.00;5519691;26;20359;-83
2024/04/12 06:06:21;;;;;;;39.80;17.75;;;;;;;11.60;100.00;102216.28;5515582;26;21235;-83
2024/04/12 06:08:52;;;;;;;38.63;17.60;;;;;;;11.65;100.00;102213.63;5552452;25;20391;-83
2024/04/12 06:11:26;;;;;;;40.90;16.95;;;;;;;11.71;100.00;102226.28;5514491;26;20382;-83
2024/04/12 06:13:54;;;;;;;37.88;17.35;;;;;;;11.69;100.00;102224.84;5504425;26;20387;-83
2024/04/12 06:16:24;;;;;;;34.78;16.80;;;;;;;11.78;100.00;102227.97;5514296;26;20396;-83
2024/04/12 06:18:51;;;;;;;41.22;17.92;;;;;;;11.69;100.00;102220.22;5516989;26;20396;-83
2024/04/12 06:21:22;;;;;;;38.58;18.13;;;;;;;11.78;100.00;102207.00;5519917;26;20383;-83
2024/04/12 06:23:54;;;;;;;36.10;18.23;;;;;;;11.74;100.00;102203.94;5518474;26;20371;-84
2024/04/12 06:26:27;;;;;;;39.20;17.95;;;;;;;11.66;100.00;102207.09;5520112;26;20722;-83
2024/04/12 06:28:57;;;;;;;41.38;19.20;;;;;;;11.65;100.00;102213.63;5517837;26;20369;-83
2024/04/12 06:31:34;;;;;;;41.50;19.33;;;;;;;11.67;100.00;102206.03;5517543;25;20363;-84
2024/04/12 06:34:04;;;;;;;43.53;19.33;;;;;;;11.76;100.00;102198.22;5507423;26;20371;-83
2024/04/12 06:36:34;;;;;;;40.83;19.15;;;;;;;11.88;100.00;102203.59;5498632;26;20374;-83
2024/04/12 06:39:04;;;;;;;38.90;19.60;;;;;;;11.84;100.00;102202.44;5510406;26;20392;-84
2024/04/12 06:41:37;;;;;;;38.58;19.25;;;;;;;11.86;100.00;102206.59;5515685;26;20387;-83
2024/04/12 06:44:04;;;;;;;41.13;19.40;;;;;;;11.77;100.00;102207.25;5518662;26;20385;-83
2024/04/12 06:46:36;;;;;;;42.65;20.40;;;;;;;11.84;100.00;102213.34;5504332;26;20363;-83
2024/04/12 06:49:07;;;;;;;37.42;19.45;;;;;;;11.86;100.00;102211.19;5512624;26;20379;-83
2024/04/12 06:51:43;;;;;;;41.10;19.15;;;;;;;11.76;100.00;102211.88;5510251;26;20374;-83
2024/04/12 06:54:11;;;;;;;40.03;19.60;;;;;;;11.79;100.00;102207.81;5506651;26;20375;-83
2024/04/12 06:56:44;;;;;;;42.38;20.27;;;;;;;11.77;100.00;102213.53;5514674;26;20715;-83
2024/04/12 06:59:13;;;;;;;37.90;19.77;;;;;;;11.77;100.00;102205.34;5507048;26;20377;-83
2024/04/12 07:01:47;;;;;;;40.75;19.10;;;;;;;11.80;100.00;102207.56;5512579;26;21242;-81
2024/04/12 07:04:15;;;;;;;40.08;18.40;;;;;;;11.85;100.00;102213.09;5506174;26;20359;-84
2024/04/12 07:06:45;;;;;;;40.40;19.20;;;;;;;11.97;100.00;102201.28;5504099;26;20401;-81
2024/04/12 07:09:12;;;;;;;38.63;19.40;;;;;;;11.96;100.00;102197.75;5502173;26;20368;-80
2024/04/12 07:11:45;;;;;;;36.80;18.13;;;;;;;12.06;100.00;102207.97;5502833;26;21195;-80
2024/04/12 07:14:15;;;;;;;36.63;18.02;;;;;;;12.25;100.00;102203.84;5518878;26;20371;-80
2024/04/12 07:16:47;;;;;;;37.25;19.05;;;;;;;12.15;100.00;102195.53;5511457;26;21223;-80
2024/04/12 07:19:18;;;;;;;36.78;19.10;;;;;;;12.18;100.00;102196.91;5516512;25;20394;-80
2024/04/12 07:21:54;;;;;;;36.33;18.98;;;;;;;12.41;100.00;102193.09;5483326;26;20355;-84
2024/04/12 07:24:22;;;;;;;37.00;18.52;;;;;;;12.34;100.00;102196.03;5482509;26;20327;-84
2024/04/12 07:26:55;;;;;;;35.60;18.83;;;;;;;12.42;100.00;102192.84;5509152;25;20363;-82
2024/04/12 07:29:23;;;;;;;37.85;18.10;;;;;;;12.52;100.00;102189.41;5475753;25;20326;-84
2024/04/12 07:31:53;;;;;;;34.75;18.92;;;;;;;12.49;100.00;102187.19;5478698;26;20368;-82
2024/04/12 07:34:21;;;;;;;32.45;17.60;;;;;;;12.51;100.00;102182.31;5487414;25;21941;-81
2024/04/12 07:36:52;;;;;;;31.95;17.38;;;;;;;12.53;100.00;102180.16;5495603;25;20351;-81
2024/04/12 07:39:23;;;;;;;31.88;17.52;;;;;;;12.51;100.00;102187.78;5480674;26;20349;-82
2024/04/12 07:41:57;;;;;;;31.38;16.92;;;;;;;12.46;100.00;102186.91;5473833;26;21182;-82
2024/04/12 07:44:26;;;;;;;32.95;16.98;;;;;;;12.54;100.00;102190.00;5466778;26;22364;-79
2024/04/12 07:46:58;;;;;;;30.98;15.88;;;;;;;12.57;100.00;102175.81;5480766;26;20328;-84
2024/04/12 07:49:33;;;;;;;30.98;16.50;;;;;;;12.74;100.00;102191.28;5494195;26;20327;-81
2024/04/12 07:52:03;;;;;;;29.80;16.13;;;;;;;12.70;100.00;102177.31;5478130;26;20354;-80
2024/04/12 07:54:32;;;;;;;29.15;16.15;;;;;;;12.71;100.00;102178.16;5480405;26;22071;-79
2024/04/12 07:57:07;;;;;;;29.23;16.17;;;;;;;12.86;100.00;102193.88;5490930;25;20359;-84
2024/04/12 07:59:37;;;;;;;30.17;16.63;;;;;;;12.97;100.00;102178.38;5510174;25;20365;-79
2024/04/12 08:02:08;;;;;;;27.45;15.52;;;;;;;12.95;100.00;102186.03;5481422;26;20364;-81
2024/04/12 08:04:36;;;;;;;32.40;15.98;;;;;;;13.34;100.00;102177.59;5473862;26;20370;-83
2024/04/12 08:07:13;;;;;;;31.23;14.52;;;;;;;13.15;100.00;102177.19;5474934;26;20334;-81
2024/04/12 08:09:44;;;;;;;26.23;14.13;;;;;;;13.26;100.00;102174.28;5475118;26;20394;-81
2024/04/12 08:12:17;;;;;;;24.33;14.35;;;;;;;13.17;100.00;102158.63;5479949;26;20334;-79
2024/04/12 08:14:52;;;;;;;25.25;13.23;;;;;;;13.22;100.00;102166.88;5476565;26;20367;-83
2024/04/12 08:17:23;;;;;;;25.55;13.98;;;;;;;13.27;100.00;102165.00;5508217;25;21327;-80
2024/04/12 08:19:55;;;;;;;22.92;13.40;;;;;;;13.53;100.00;102169.84;5430192;25;21178;-79
2024/04/12 08:22:25;;;;;;;23.42;12.98;;;;;;;13.44;100.00;102155.84;5409930;26;21765;-81
2024/04/12 08:24:54;;;;;;;24.48;13.32;;;;;;;13.76;100.00;102157.69;5404980;26;20323;-81
2024/04/12 08:27:30;;;;;;;23.27;13.27;;;;;;;13.84;100.00;102154.44;5400285;26;20328;-83
2024/04/12 08:29:58;;;;;;;21.13;12.55;;;;;;;13.89;100.00;102153.63;5408643;26;20656;-83
2024/04/12 08:32:33;;;;;;;22.33;12.05;;;;;;;13.94;100.00;102159.16;5402976;26;20375;-81
2024/04/12 08:35:06;;;;;;;23.00;12.40;;;;;;;14.28;100.00;102150.53;5400488;26;20328;-81
2024/04/12 08:37:39;;;;;;;18.55;11.48;;;;;;;14.50;100.00;102152.22;5409130;26;20437;-81
2024/04/12 08:40:10;;;;;;;19.42;11.23;;;;;;;14.11;100.00;102157.03;5402538;26;21038;-79
2024/04/12 08:42:43;;;;;;;18.33;10.48;;;;;;;14.15;100.00;102156.50;5409027;26;20402;-80
2024/04/12 08:45:15;;;;;;;18.73;10.57;;;;;;;14.01;100.00;102145.22;5408890;26;20372;-82
2024/04/12 08:47:51;;;;;;;15.93;9.90;;;;;;;13.93;100.00;102152.00;5406422;26;20363;-81
2024/04/12 08:50:23;;;;;;;19.98;9.90;;;;;;;13.87;100.00;102150.34;5406331;26;20831;-81
2024/04/12 08:52:54;;;;;;;17.10;9.65;;;;;;;13.85;100.00;102152.53;5403302;26;20320;-81
2024/04/12 08:55:23;;;;;;;15.80;9.35;;;;;;;13.82;100.00;102158.53;5412102;26;20344;-80
2024/04/12 08:58:00;;;;;;;15.70;9.43;;;;;;;13.98;100.00;102154.78;5411664;26;20340;-83
2024/04/12 09:00:32;;;;;;;18.38;9.75;;;;;;;14.07;100.00;102155.09;5407673;26;21896;-79
2024/04/12 09:03:10;;;;;;;17.50;9.13;;;;;;;14.24;100.00;102154.91;5406805;26;20339;-83
2024/04/12 09:05:40;;;;;;;16.90;9.10;;;;;;;13.93;100.00;102152.84;5402531;26;21285;-81
2024/04/12 09:08:17;;;;;;;17.58;8.60;;;;;;;14.18;100.00;102154.03;5399921;26;20327;-81
2024/04/12 09:10:45;;;;;;;14.75;8.30;;;;;;;14.12;100.00;102146.91;5403886;26;20328;-79
2024/04/12 09:13:19;;;;;;;14.52;8.43;;;;;;;14.17;100.00;102141.44;5405472;26;20364;-83
2024/04/12 09:15:49;;;;;;;14.23;8.35;;;;;;;14.15;100.00;102140.06;5405117;26;20350;-82
2024/04/12 09:18:26;;;;;;;15.77;8.13;;;;;;;14.39;100.00;102133.03;5413354;26;20323;-79
2024/04/12 09:21:01;;;;;;;14.02;7.78;;;;;;;14.28;100.00;102134.09;5363543;26;20339;-80
2024/04/12 09:23:36;;;;;;;13.93;7.88;;;;;;;14.29;100.00;102127.50;5405092;26;22103;-79
2024/04/12 09:26:21;;;;;;;14.93;7.97;;;;;;;14.54;100.00;102125.94;5404863;26;20336;-81
2024/04/12 09:29:01;;;;;;;15.07;7.88;;;;;;;14.63;100.00;102127.06;5413807;26;21092;-80
2024/04/12 09:34:35;;;;;;;12.13;7.13;;;;;;;14.75;100.00;102133.13;5411150;26;20363;-82
2024/04/12 09:37:28;;;;;;;12.30;6.95;;;;;;;14.71;100.00;102137.50;5411456;26;20324;-81
2024/04/12 09:40:04;;;;;;;11.30;6.63;;;;;;;14.89;100.00;102149.03;5406184;26;20333;-83
2024/04/12 09:42:44;;;;;;;12.43;6.93;;;;;;;14.69;100.00;102149.81;5404127;26;20335;-80
2024/04/12 09:45:19;;;;;;;11.63;7.15;;;;;;;14.48;100.00;102136.06;5406257;26;21315;-80
2024/04/12 10:38:23;;;;;;;9.55;6.63;;;;;;;14.70;100.00;102118.59;5378490;26;20343;-81
2024/04/12 10:40:53;;;;;;;10.30;6.60;;;;;;;14.99;100.00;102104.34;5381149;26;20751;-80
2024/04/12 10:43:25;;;;;;;10.68;6.40;;;;;;;14.97;100.00;102101.91;5367444;26;20331;-82
2024/04/12 10:46:04;;;;;;;10.43;6.68;;;;;;;14.96;100.00;102095.56;5363775;26;22019;-83
2024/04/12 10:48:35;;;;;;;10.95;6.55;;;;;;;14.96;100.00;102089.28;5371587;26;20357;-82
2024/04/12 10:51:08;;;;;;;11.03;6.57;;;;;;;15.03;100.00;102095.28;5370040;26;20547;-81
2024/04/12 10:53:39;;;;;;;10.75;6.82;;;;;;;15.01;100.00;102099.41;5366484;26;20366;-80
2024/04/12 10:56:07;;;;;;;10.95;6.35;;;;;;;14.79;100.00;102098.59;5368984;26;20342;-81
2024/04/12 10:58:43;;;;;;;9.35;5.85;;;;;;;14.72;100.00;102081.59;5407684;26;20338;-80
2024/04/12 11:01:13;;;;;;;11.65;6.35;;;;;;;14.78;100.00;102085.97;5368219;26;20655;-80
2024/04/12 11:03:56;;;;;;;11.90;6.32;;;;;;;14.95;100.00;102093.09;5379071;26;20379;-80
2024/04/12 11:06:31;;;;;;;11.45;6.47;;;;;;;14.81;100.00;102092.84;5359437;26;22308;-79
2024/04/12 11:09:04;;;;;;;10.18;6.13;;;;;;;14.98;100.00;102092.56;5364227;26;20343;-79
2024/04/12 11:11:33;;;;;;;9.73;6.35;;;;;;;14.88;100.00;102092.56;5366332;26;20347;-83
2024/04/12 11:14:06;;;;;;;9.20;5.93;;;;;;;15.06;100.00;102091.19;5364285;26;20367;-82
2024/04/12 11:31:14;;;;;;;10.55;5.88;;;;;;;14.84;100.00;102077.78;5357256;26;21042;-81
2024/04/12 11:33:52;;;;;;;11.27;6.50;;;;;;;14.90;100.00;102080.25;5359662;26;20335;-83
2024/04/12 11:36:23;;;;;;;9.93;6.00;;;;;;;14.82;100.00;102077.19;5370046;26;20357;-81
2024/04/12 11:38:57;;;;;;;10.63;6.55;;;;;;;14.72;100.00;102089.84;5357095;26;20746;-79
2024/04/12 11:41:35;;;;;;;9.85;6.45;;;;;;;14.78;100.00;102080.50;5357542;26;20881;-80
2024/04/12 11:44:08;;;;;;;10.13;6.47;;;;;;;14.71;100.00;102076.41;5362534;26;21467;-79
2024/04/12 11:46:45;;;;;;;11.20;7.20;;;;;;;14.59;100.00;102080.19;5364598;26;20362;-79
2024/04/12 11:49:27;;;;;;;11.40;7.10;;;;;;;14.49;100.00;102090.34;5365946;26;21317;-81
2024/04/12 11:51:55;;;;;;;12.48;7.47;;;;;;;14.49;100.00;102087.59;5358929;26;20334;-82
2024/04/12 11:54:29;;;;;;;12.30;7.35;;;;;;;14.26;100.00;102095.19;5369901;26;20381;-82
2024/04/12 11:56:59;;;;;;;12.38;7.30;;;;;;;14.44;100.00;102099.34;5360111;26;20331;-83
2024/04/12 11:59:30;;;;;;;12.80;7.00;;;;;;;14.42;100.00;102090.59;5366068;26;20408;-81
2024/04/12 12:01:59;;;;;;;11.75;7.20;;;;;;;14.45;100.00;102082.63;5357582;26;20693;-80
2024/04/12 12:04:30;;;;;;;13.80;7.20;;;;;;;14.58;100.00;102064.88;5380265;26;20815;-79
2024/04/12 12:06:59;;;;;;;13.38;7.22;;;;;;;14.92;100.00;102066.25;5362449;26;21710;-83
2024/04/12 12:09:36;;;;;;;11.18;7.07;;;;;;;15.17;100.00;102064.59;5371454;26;20311;-83
2024/04/12 12:12:10;;;;;;;12.10;7.13;;;;;;;15.28;100.00;102057.97;5367142;26;21039;-81
2024/04/12 12:14:41;;;;;;;12.23;6.90;;;;;;;15.51;100.00;102044.72;5364578;26;20365;-82
2024/04/12 12:17:09;;;;;;;12.93;6.82;;;;;;;15.62;100.00;102047.16;5366516;26;20326;-82
2024/04/12 12:19:39;;;;;;;12.17;7.37;;;;;;;15.58;100.00;102040.59;5340379;26;20323;-84
2024/04/12 12:22:10;;;;;;;12.25;7.10;;;;;;;15.96;100.00;102027.28;5368158;26;20374;-83
2024/04/12 12:24:43;;;;;;;12.65;6.93;;;;;;;16.07;100.00;102033.50;5363589;26;20350;-81
2024/04/12 12:27:11;;;;;;;12.00;7.05;;;;;;;16.00;100.00;102052.22;5367342;26;20839;-82
2024/04/12 12:29:42;;;;;;;9.93;6.43;;;;;;;16.19;100.00;102040.59;5359589;26;20326;-83
2024/04/12 12:32:11;;;;;;;9.00;6.20;;;;;;;16.36;100.00;102043.75;5361731;26;20331;-80
2024/04/12 12:34:43;;;;;;;9.32;5.78;;;;;;;16.67;100.00;102038.03;5367168;26;20373;-82
2024/04/12 12:37:11;;;;;;;10.00;6.20;;;;;;;16.64;100.00;102041.34;5364093;26;20336;-84
2024/04/12 12:39:44;;;;;;;10.80;6.50;;;;;;;16.61;100.00;102023.53;5365786;26;20334;-81
2024/04/12 12:42:12;;;;;;;9.85;6.05;;;;;;;16.51;100.00;102025.53;5373415;26;20845;-83